Time;durP1;ratioP1;P1;durP2;ratioP2;P2;SDS_P1;SDS_P2;PMS_P1;PMS_P2;Temp;Humidity;BMP_temperature;BMP_pressure;BME280_temperature;BME280_humidity;BME280_pressure;Samples;Min_cycle;Max_cycle;Signal;HPM_P1;HPM_P2
2022/03/14 00:00:47;;;;;;;2.53;2.33;;;11.80;99.90;;;;;;6235246;23;20173;-75
2022/03/14 00:03:15;;;;;;;2.60;2.20;;;11.90;99.90;;;;;;6221020;23;20209;-75
2022/03/14 00:05:42;;;;;;;2.60;2.40;;;11.90;99.90;;;;;;6205894;23;20248;-76
2022/03/14 00:08:13;;;;;;;3.10;2.47;;;11.90;99.90;;;;;;6204611;23;20185;-76
2022/03/14 00:10:41;;;;;;;3.17;2.63;;;11.80;99.90;;;;;;6204687;23;20899;-77
2022/03/14 00:13:09;;;;;;;2.80;2.60;;;11.80;99.90;;;;;;6204457;23;20848;-77
2022/03/14 00:15:35;;;;;;;2.97;2.70;;;11.70;99.90;;;;;;6203442;23;20232;-75
2022/03/14 00:18:03;;;;;;;5.00;2.93;;;11.70;99.90;;;;;;6205644;23;20177;-77
2022/03/14 00:20:31;;;;;;;5.20;3.77;;;11.70;99.90;;;;;;6204340;23;20185;-77
2022/03/14 00:22:58;;;;;;;3.20;2.90;;;11.80;99.90;;;;;;6204258;23;20178;-78
2022/03/14 00:25:28;;;;;;;3.57;3.20;;;11.70;99.90;;;;;;6205505;23;20174;-78
2022/03/14 00:27:55;;;;;;;2.93;2.67;;;11.70;99.90;;;;;;6204911;23;20174;-76
2022/03/14 00:30:22;;;;;;;3.27;2.97;;;11.70;99.90;;;;;;6204576;23;20201;-80
2022/03/14 00:32:49;;;;;;;3.63;3.27;;;11.70;99.90;;;;;;6207304;23;20656;-78
2022/03/14 00:35:16;;;;;;;3.27;2.97;;;11.70;99.90;;;;;;6206823;23;20178;-77
2022/03/14 00:37:43;;;;;;;3.60;3.30;;;11.60;99.90;;;;;;6205364;23;20782;-77
2022/03/14 00:40:11;;;;;;;3.70;3.30;;;11.60;99.90;;;;;;6206828;23;20175;-79
2022/03/14 00:42:40;;;;;;;3.20;2.90;;;11.60;99.90;;;;;;6207086;23;20177;-81
2022/03/14 00:45:07;;;;;;;2.80;2.50;;;11.60;99.90;;;;;;6206593;23;20178;-77
2022/03/14 00:47:34;;;;;;;3.20;2.90;;;11.60;99.90;;;;;;6207561;23;20425;-76
2022/03/14 00:50:01;;;;;;;3.07;2.83;;;11.50;99.90;;;;;;6207954;23;20181;-78
2022/03/14 00:52:28;;;;;;;3.13;2.83;;;11.50;99.90;;;;;;6206682;23;20182;-77
2022/03/14 00:54:54;;;;;;;2.80;2.60;;;11.50;99.90;;;;;;6206178;23;20174;-77
2022/03/14 00:57:21;;;;;;;3.23;2.93;;;11.40;99.90;;;;;;6206130;23;20174;-77
2022/03/14 00:59:49;;;;;;;3.07;2.63;;;11.40;99.90;;;;;;6207514;23;20196;-76
2022/03/14 01:02:16;;;;;;;3.43;2.70;;;11.40;99.90;;;;;;6206791;23;20188;-75
2022/03/14 01:04:43;;;;;;;3.73;2.70;;;11.40;99.90;;;;;;6205677;23;20178;-80
2022/03/14 01:07:09;;;;;;;3.20;2.90;;;11.40;99.90;;;;;;6206223;23;20174;-78
2022/03/14 01:09:36;;;;;;;2.57;2.37;;;11.40;99.90;;;;;;6206035;23;20432;-78
2022/03/14 01:12:04;;;;;;;2.97;2.47;;;11.40;99.90;;;;;;6205259;23;20193;-77
2022/03/14 01:14:31;;;;;;;3.60;3.30;;;11.40;99.90;;;;;;6206134;23;20908;-78
2022/03/14 01:16:59;;;;;;;3.53;2.70;;;11.40;99.90;;;;;;6206205;23;20202;-78
2022/03/14 01:19:26;;;;;;;3.53;2.60;;;11.40;99.90;;;;;;6205583;23;20563;-77
2022/03/14 01:21:52;;;;;;;4.53;3.40;;;11.40;99.90;;;;;;6205778;23;20861;-77
2022/03/14 01:24:19;;;;;;;3.23;2.93;;;11.40;99.90;;;;;;6205846;23;20174;-76
2022/03/14 01:26:46;;;;;;;4.00;2.80;;;11.40;99.90;;;;;;6205513;23;20558;-77
2022/03/14 01:29:14;;;;;;;3.10;2.83;;;11.40;99.90;;;;;;6205174;23;20579;-77
2022/03/14 01:31:41;;;;;;;2.77;2.57;;;11.40;99.90;;;;;;6206331;23;20178;-77
2022/03/14 01:34:09;;;;;;;4.03;2.90;;;11.40;99.90;;;;;;6206002;23;20204;-76
2022/03/14 01:36:36;;;;;;;2.90;2.67;;;11.40;99.90;;;;;;6205572;23;20174;-77
2022/03/14 01:39:04;;;;;;;3.03;2.70;;;11.40;99.90;;;;;;6206497;23;20200;-76
2022/03/14 01:41:32;;;;;;;2.97;2.57;;;11.30;99.90;;;;;;6204162;23;20174;-77
2022/03/14 01:43:59;;;;;;;3.20;2.90;;;11.30;99.90;;;;;;6205939;23;20178;-75
2022/03/14 01:46:26;;;;;;;3.77;2.60;;;11.30;99.90;;;;;;6205234;23;20182;-77
2022/03/14 01:48:53;;;;;;;3.40;3.03;;;11.40;99.90;;;;;;6205261;23;20236;-77
2022/03/14 01:51:22;;;;;;;3.00;2.70;;;11.40;99.90;;;;;;6204815;23;20674;-78
2022/03/14 01:53:49;;;;;;;3.40;3.10;;;11.30;99.90;;;;;;6204624;23;20279;-77
2022/03/14 01:56:17;;;;;;;4.00;2.83;;;11.30;99.90;;;;;;6206619;23;20177;-78
2022/03/14 01:58:44;;;;;;;3.10;2.80;;;11.30;99.90;;;;;;6206142;23;20166;-77
2022/03/14 02:01:11;;;;;;;3.23;2.93;;;11.30;99.90;;;;;;6205972;23;20181;-75
2022/03/14 02:03:37;;;;;;;3.00;2.70;;;11.20;99.90;;;;;;6204904;23;20661;-77
2022/03/14 02:06:05;;;;;;;3.87;2.87;;;11.20;99.90;;;;;;6206126;23;20178;-76
2022/03/14 02:08:35;;;;;;;3.57;2.93;;;11.20;99.90;;;;;;6204750;23;20173;-76
2022/03/14 02:11:01;;;;;;;3.03;2.73;;;11.20;99.90;;;;;;6205753;23;20293;-76
2022/03/14 02:13:28;;;;;;;3.13;2.83;;;11.20;99.90;;;;;;6205405;23;20228;-75
2022/03/14 02:15:55;;;;;;;3.00;2.70;;;11.20;99.90;;;;;;6204503;23;20480;-76
2022/03/14 02:18:22;;;;;;;3.23;2.73;;;11.20;99.90;;;;;;6205199;23;20606;-76
2022/03/14 02:20:50;;;;;;;3.17;2.73;;;11.20;99.90;;;;;;6205997;23;20178;-75
2022/03/14 02:23:17;;;;;;;3.13;2.60;;;11.10;99.90;;;;;;6204834;23;20435;-76
2022/03/14 02:25:47;;;;;;;2.87;2.63;;;11.20;99.90;;;;;;6205213;23;20746;-76
2022/03/14 02:28:15;;;;;;;3.80;2.70;;;11.10;99.90;;;;;;6205264;23;20177;-76
2022/03/14 02:30:42;;;;;;;3.37;2.73;;;11.10;99.90;;;;;;6204934;23;20174;-75
2022/03/14 02:33:09;;;;;;;2.60;2.40;;;11.10;99.90;;;;;;6205592;23;20209;-76
2022/03/14 02:35:38;;;;;;;3.57;2.80;;;11.10;99.90;;;;;;6205363;23;20174;-76
2022/03/14 02:38:14;;;;;;;3.70;3.17;;;11.10;99.90;;;;;;6204657;23;20481;-76
2022/03/14 02:40:42;;;;;;;2.90;2.70;;;11.10;99.90;;;;;;6204802;23;20180;-76
2022/03/14 02:43:09;;;;;;;3.90;2.80;;;11.10;99.90;;;;;;6205296;23;20876;-76
2022/03/14 02:45:36;;;;;;;4.10;3.10;;;11.10;99.90;;;;;;6204709;23;20175;-78
2022/03/14 02:48:02;;;;;;;3.37;3.07;;;11.10;99.90;;;;;;6205392;23;20166;-79
2022/03/14 02:50:31;;;;;;;3.53;2.87;;;11.10;99.90;;;;;;6204070;23;20174;-76
2022/03/14 02:52:58;;;;;;;3.60;3.03;;;11.10;99.90;;;;;;6204757;23;20209;-78
2022/03/14 02:55:26;;;;;;;3.90;3.47;;;11.00;99.90;;;;;;6205164;23;20844;-75
2022/03/14 02:57:53;;;;;;;3.43;3.13;;;11.00;99.90;;;;;;6204964;23;20228;-76
2022/03/14 03:00:20;;;;;;;4.00;2.93;;;11.00;99.90;;;;;;6205126;23;20174;-75
2022/03/14 03:02:47;;;;;;;3.80;3.30;;;11.00;99.90;;;;;;6205311;23;20201;-77
2022/03/14 03:05:14;;;;;;;5.20;4.60;;;11.00;99.90;;;;;;6204849;23;20170;-76
2022/03/14 03:07:40;;;;;;;6.10;4.60;;;11.00;99.90;;;;;;6205409;23;20181;-75
2022/03/14 03:10:08;;;;;;;5.60;5.10;;;11.00;99.90;;;;;;6205500;23;20232;-76
2022/03/14 03:12:40;;;;;;;6.13;5.50;;;11.00;99.90;;;;;;6204036;23;20173;-76
2022/03/14 03:15:08;;;;;;;6.57;5.37;;;11.00;99.90;;;;;;6204888;23;20202;-75
2022/03/14 03:17:35;;;;;;;6.47;5.87;;;10.90;99.90;;;;;;6204584;23;20194;-76
2022/03/14 03:20:02;;;;;;;7.77;5.57;;;10.90;99.90;;;;;;6179132;23;20177;-76
2022/03/14 03:22:29;;;;;;;7.67;6.60;;;10.90;99.90;;;;;;6204676;23;20174;-78
2022/03/14 03:24:56;;;;;;;6.40;5.80;;;10.80;99.90;;;;;;6204152;23;20173;-77
2022/03/14 03:27:23;;;;;;;7.20;6.50;;;10.80;99.90;;;;;;6204127;23;20173;-76
2022/03/14 03:29:51;;;;;;;7.00;6.30;;;10.80;99.90;;;;;;6205391;23;20870;-76
2022/03/14 03:32:17;;;;;;;7.80;7.00;;;10.80;99.90;;;;;;6203509;23;20182;-74
2022/03/14 03:34:44;;;;;;;7.63;6.87;;;10.70;99.90;;;;;;6205292;23;20959;-77
2022/03/14 03:37:11;;;;;;;8.70;7.80;;;10.70;99.90;;;;;;6205419;23;20170;-76
2022/03/14 03:39:38;;;;;;;9.40;8.50;;;10.60;99.90;;;;;;6203605;23;20178;-76
2022/03/14 03:42:05;;;;;;;9.27;7.87;;;10.60;99.90;;;;;;6205780;23;20182;-77
2022/03/14 03:44:32;;;;;;;9.63;8.70;;;10.60;99.90;;;;;;6204773;23;20618;-76
2022/03/14 03:47:00;;;;;;;10.27;9.20;;;10.60;99.90;;;;;;6205335;23;20174;-77
2022/03/14 03:49:27;;;;;;;10.87;9.63;;;10.60;99.90;;;;;;6205154;23;20174;-77
2022/03/14 03:51:53;;;;;;;11.23;10.07;;;10.60;99.90;;;;;;6204604;23;20189;-77
2022/03/14 03:54:21;;;;;;;11.77;10.57;;;10.50;99.90;;;;;;6205049;23;20201;-76
2022/03/14 03:56:48;;;;;;;11.13;10.03;;;10.50;99.90;;;;;;6205680;23;20743;-77
2022/03/14 03:59:15;;;;;;;10.87;9.77;;;10.50;99.90;;;;;;6204686;23;20422;-76
2022/03/14 04:01:43;;;;;;;11.03;9.83;;;10.50;99.90;;;;;;6204040;23;20184;-78
2022/03/14 04:04:11;;;;;;;11.10;10.00;;;10.50;99.90;;;;;;6204652;23;20199;-78
2022/03/14 04:06:40;;;;;;;10.67;9.57;;;10.50;99.90;;;;;;6207152;23;20741;-77
2022/03/14 04:09:07;;;;;;;11.70;10.47;;;10.50;99.90;;;;;;6206443;23;20178;-74
2022/03/14 04:11:34;;;;;;;14.20;12.70;;;10.40;99.90;;;;;;6206936;23;20174;-77
2022/03/14 04:14:01;;;;;;;15.73;13.77;;;10.40;99.90;;;;;;6206649;23;20197;-78
2022/03/14 04:16:29;;;;;;;16.10;14.50;;;10.50;99.90;;;;;;6205245;23;20645;-77
2022/03/14 04:18:56;;;;;;;17.13;15.40;;;10.40;99.90;;;;;;6207078;23;20317;-77
2022/03/14 04:21:25;;;;;;;18.80;16.80;;;10.40;99.90;;;;;;6205832;23;20181;-75
2022/03/14 04:23:51;;;;;;;18.57;16.67;;;10.40;99.90;;;;;;6206290;23;20193;-76
2022/03/14 04:26:18;;;;;;;20.67;18.47;;;10.30;99.90;;;;;;6206253;23;20178;-77
2022/03/14 04:28:45;;;;;;;24.20;20.93;;;10.30;99.90;;;;;;6206145;23;20182;-77
2022/03/14 04:31:12;;;;;;;25.23;21.43;;;10.30;99.90;;;;;;6207446;23;20178;-76
2022/03/14 04:33:38;;;;;;;27.23;21.87;;;10.30;99.90;;;;;;6205992;23;20177;-76
2022/03/14 04:36:06;;;;;;;27.10;21.97;;;10.20;99.90;;;;;;6205801;23;20174;-77
2022/03/14 04:38:34;;;;;;;27.43;23.53;;;10.20;99.90;;;;;;6206928;23;20184;-77
2022/03/14 04:41:01;;;;;;;29.57;23.70;;;10.20;99.90;;;;;;6206216;23;20181;-77
2022/03/14 04:43:28;;;;;;;32.50;25.57;;;10.20;99.90;;;;;;6205902;23;20174;-76
2022/03/14 04:45:54;;;;;;;32.37;23.90;;;10.10;99.90;;;;;;6207115;23;20170;-79
2022/03/14 04:48:21;;;;;;;31.57;25.27;;;10.10;99.90;;;;;;6206526;23;20705;-77
2022/03/14 04:50:49;;;;;;;29.80;24.23;;;10.10;99.90;;;;;;6206064;23;20224;-78
2022/03/14 04:53:16;;;;;;;32.00;25.83;;;10.10;99.90;;;;;;6205637;23;20181;-76
2022/03/14 04:55:44;;;;;;;36.63;26.97;;;10.00;99.90;;;;;;6206509;23;20198;-81
2022/03/14 04:58:12;;;;;;;33.83;26.73;;;10.00;99.90;;;;;;6205789;23;20182;-77
2022/03/14 05:00:39;;;;;;;31.63;25.63;;;10.00;99.90;;;;;;6206553;23;20430;-76
2022/03/14 05:03:07;;;;;;;37.47;27.10;;;10.00;99.90;;;;;;6207393;23;20205;-75
2022/03/14 05:05:34;;;;;;;34.00;25.43;;;10.00;99.90;;;;;;6206049;23;20225;-78
2022/03/14 05:08:02;;;;;;;32.60;23.80;;;10.00;99.90;;;;;;6207437;23;20221;-76
2022/03/14 05:10:29;;;;;;;34.87;24.40;;;10.00;99.90;;;;;;6206647;23;20265;-77
2022/03/14 05:12:59;;;;;;;35.33;23.73;;;9.90;99.90;;;;;;6207608;23;20166;-80
2022/03/14 05:15:26;;;;;;;31.97;22.37;;;9.90;99.90;;;;;;6206880;23;20209;-78
2022/03/14 05:17:53;;;;;;;28.43;21.93;;;9.90;99.90;;;;;;6205689;23;20177;-79
2022/03/14 05:20:19;;;;;;;31.17;22.67;;;9.80;99.90;;;;;;6205951;23;20177;-78
2022/03/14 05:22:49;;;;;;;27.90;19.93;;;9.80;99.90;;;;;;6207013;23;20201;-77
2022/03/14 05:25:17;;;;;;;35.30;21.00;;;9.80;99.90;;;;;;6206438;23;20174;-77
2022/03/14 05:27:43;;;;;;;32.30;19.83;;;9.80;99.90;;;;;;6207010;23;20174;-84
2022/03/14 05:30:12;;;;;;;25.70;15.60;;;9.80;99.90;;;;;;6206665;23;20166;-77
2022/03/14 05:32:40;;;;;;;17.83;10.00;;;9.80;99.90;;;;;;6205956;23;20170;-80
2022/03/14 05:35:09;;;;;;;11.83;7.57;;;9.80;99.90;;;;;;6207634;23;20597;-78
2022/03/14 05:37:36;;;;;;;13.60;7.53;;;9.80;99.90;;;;;;6207843;23;20207;-81
2022/03/14 05:40:04;;;;;;;15.60;6.70;;;9.80;99.90;;;;;;6207984;23;20178;-77
2022/03/14 05:42:30;;;;;;;13.43;6.87;;;9.80;99.90;;;;;;6207708;23;20197;-78
2022/03/14 05:44:57;;;;;;;9.83;5.73;;;9.80;99.90;;;;;;6207490;23;20170;-76
2022/03/14 05:47:25;;;;;;;15.43;7.30;;;9.80;99.90;;;;;;6207321;23;20174;-77
2022/03/14 05:49:52;;;;;;;14.47;7.03;;;9.80;99.90;;;;;;6208365;23;20185;-78
2022/03/14 05:52:21;;;;;;;15.27;6.87;;;9.70;99.90;;;;;;6206608;23;20185;-78
2022/03/14 05:54:48;;;;;;;13.90;6.93;;;9.70;99.90;;;;;;6206281;23;20194;-77
2022/03/14 05:57:15;;;;;;;20.80;8.17;;;9.60;99.90;;;;;;6206505;23;20174;-77
2022/03/14 05:59:42;;;;;;;22.80;7.50;;;9.60;99.90;;;;;;6205773;23;20813;-79
2022/03/14 06:02:10;;;;;;;22.60;6.90;;;9.60;99.90;;;;;;6206548;23;20184;-78
2022/03/14 06:04:39;;;;;;;16.13;6.57;;;9.60;99.90;;;;;;6207117;23;20245;-80
2022/03/14 06:07:06;;;;;;;23.13;7.03;;;9.60;99.90;;;;;;6207933;23;20261;-77
2022/03/14 06:09:33;;;;;;;20.07;7.10;;;9.50;99.90;;;;;;6208658;23;20232;-77
2022/03/14 06:11:59;;;;;;;18.13;6.50;;;9.50;99.90;;;;;;6208862;23;20174;-76
2022/03/14 06:14:26;;;;;;;14.10;6.17;;;9.50;99.90;;;;;;6206527;23;20189;-79
2022/03/14 06:16:53;;;;;;;16.27;5.87;;;9.50;99.90;;;;;;6207397;23;20208;-79
2022/03/14 06:19:20;;;;;;;12.40;5.67;;;9.50;99.90;;;;;;6206754;23;20207;-79
2022/03/14 06:21:48;;;;;;;13.53;6.23;;;9.50;99.90;;;;;;6207143;23;20186;-80
2022/03/14 06:24:15;;;;;;;12.43;5.40;;;9.50;99.90;;;;;;6207906;23;20177;-78
2022/03/14 06:26:41;;;;;;;10.83;5.40;;;9.50;99.90;;;;;;6207535;23;20174;-81
2022/03/14 06:29:08;;;;;;;14.47;5.60;;;9.50;99.90;;;;;;6205820;23;20177;-79
2022/03/14 06:31:35;;;;;;;14.73;5.33;;;9.50;99.90;;;;;;6207217;23;20178;-87
2022/03/14 06:34:02;;;;;;;12.43;5.20;;;9.50;99.90;;;;;;6206951;23;20284;-76
2022/03/14 06:36:30;;;;;;;14.20;6.63;;;9.50;99.90;;;;;;6205781;23;20181;-79
2022/03/14 06:38:59;;;;;;;17.23;6.40;;;9.50;99.90;;;;;;6206641;23;20177;-84
2022/03/14 06:41:26;;;;;;;15.27;6.70;;;9.50;99.90;;;;;;6206618;23;20170;-78
2022/03/14 06:43:55;;;;;;;16.93;6.90;;;9.50;99.90;;;;;;6206333;23;20174;-76
2022/03/14 06:46:23;;;;;;;16.50;6.20;;;9.50;99.90;;;;;;6207565;23;20181;-78
2022/03/14 06:48:50;;;;;;;23.77;8.23;;;9.50;99.90;;;;;;6208528;23;20600;-76
2022/03/14 06:51:16;;;;;;;17.50;7.53;;;9.60;99.90;;;;;;6207328;23;20174;-79
2022/03/14 06:53:43;;;;;;;11.70;5.10;;;9.60;99.90;;;;;;6208090;23;20174;-78
2022/03/14 06:56:13;;;;;;;15.23;5.87;;;9.60;99.90;;;;;;6206342;23;20198;-77
2022/03/14 06:58:39;;;;;;;13.87;5.20;;;9.60;99.90;;;;;;6207047;23;20180;-76
2022/03/14 07:01:06;;;;;;;15.77;4.87;;;9.60;99.90;;;;;;6207197;23;20178;-78
2022/03/14 07:03:33;;;;;;;8.67;4.10;;;9.60;99.90;;;;;;6205634;23;20201;-82
2022/03/14 07:05:59;;;;;;;16.27;5.40;;;9.60;99.90;;;;;;6206518;23;20174;-77
2022/03/14 07:08:26;;;;;;;13.40;5.20;;;9.60;99.90;;;;;;6207373;23;20178;-76
2022/03/14 07:10:54;;;;;;;14.43;5.23;;;9.60;99.90;;;;;;6207087;23;20182;-79
2022/03/14 07:13:22;;;;;;;16.67;6.67;;;9.70;99.90;;;;;;6208062;23;20198;-77
2022/03/14 07:15:49;;;;;;;13.47;6.10;;;9.70;99.90;;;;;;6207853;23;20761;-82
2022/03/14 07:18:15;;;;;;;10.67;6.67;;;9.70;99.90;;;;;;6210254;23;20579;-84
2022/03/14 07:20:43;;;;;;;19.00;9.20;;;9.70;99.90;;;;;;6210461;23;20208;-84
2022/03/14 07:23:09;;;;;;;15.97;8.77;;;9.70;99.90;;;;;;6207712;23;20174;-86
2022/03/14 07:25:38;;;;;;;18.80;9.60;;;9.70;99.90;;;;;;6206507;23;20174;-80
2022/03/14 07:28:07;;;;;;;17.73;10.27;;;9.70;99.90;;;;;;6206739;23;20170;-83
2022/03/14 07:30:35;;;;;;;21.90;11.97;;;9.70;99.90;;;;;;6207238;23;20567;-78
2022/03/14 07:33:02;;;;;;;24.03;14.43;;;9.80;99.90;;;;;;6206356;23;20185;-77
2022/03/14 07:35:30;;;;;;;25.53;17.07;;;9.80;99.90;;;;;;6206648;23;20205;-80
2022/03/14 07:37:57;;;;;;;25.47;16.87;;;9.80;99.90;;;;;;6207952;23;20197;-82
2022/03/14 07:40:24;;;;;;;24.80;17.83;;;9.80;99.90;;;;;;6206371;23;20177;-81
2022/03/14 07:42:53;;;;;;;27.07;17.93;;;9.90;99.90;;;;;;6208729;23;20181;-77
2022/03/14 07:45:23;;;;;;;23.53;18.30;;;9.90;99.90;;;;;;6208629;23;20173;-77
2022/03/14 07:47:51;;;;;;;24.10;18.23;;;10.00;99.90;;;;;;6212230;23;20170;-82
2022/03/14 07:50:18;;;;;;;23.30;18.53;;;10.00;99.90;;;;;;6238531;23;20169;-78
2022/03/14 07:52:47;;;;;;;26.13;19.23;;;10.10;99.90;;;;;;6238947;23;20442;-80
2022/03/14 07:55:14;;;;;;;25.10;18.70;;;10.10;99.90;;;;;;6238482;23;20198;-76
2022/03/14 07:58:07;;;;;;;26.67;20.03;;;10.10;99.90;;;;;;6234205;23;20174;-76
2022/03/14 08:00:34;;;;;;;24.30;18.73;;;10.20;99.90;;;;;;6237984;23;20590;-82
2022/03/14 08:03:03;;;;;;;23.67;17.73;;;10.20;99.90;;;;;;6229754;23;20205;-80
2022/03/14 08:05:30;;;;;;;22.50;19.07;;;10.20;99.90;;;;;;6210825;23;20170;-84
2022/03/14 08:07:58;;;;;;;22.30;17.50;;;10.20;99.90;;;;;;6206298;23;20175;-76
2022/03/14 08:10:26;;;;;;;20.97;17.00;;;10.30;99.90;;;;;;6207241;23;20257;-77
2022/03/14 08:12:54;;;;;;;18.67;16.07;;;10.30;99.90;;;;;;6206887;23;20201;-76
2022/03/14 08:15:23;;;;;;;21.07;17.17;;;10.40;99.90;;;;;;6201063;23;20193;-77
2022/03/14 08:17:50;;;;;;;22.67;17.23;;;10.40;99.90;;;;;;6207242;23;20714;-77
2022/03/14 08:20:20;;;;;;;25.10;18.70;;;10.50;99.90;;;;;;6207381;23;20668;-78
2022/03/14 08:22:47;;;;;;;20.03;15.63;;;10.50;99.90;;;;;;6207289;23;20178;-77
2022/03/14 08:25:14;;;;;;;20.93;15.90;;;10.60;99.90;;;;;;6206838;23;20247;-78
2022/03/14 08:27:41;;;;;;;27.60;17.87;;;10.70;99.90;;;;;;6206825;23;20173;-77
2022/03/14 08:30:09;;;;;;;24.87;17.50;;;10.70;99.90;;;;;;6208581;23;20174;-81
2022/03/14 08:32:39;;;;;;;23.43;16.83;;;10.70;99.90;;;;;;6207961;23;20167;-77
2022/03/14 08:35:08;;;;;;;18.27;15.20;;;10.80;99.90;;;;;;6206132;23;20236;-79
2022/03/14 08:37:38;;;;;;;21.27;14.93;;;10.80;99.90;;;;;;6206269;23;20174;-77
2022/03/14 08:40:07;;;;;;;23.57;16.57;;;10.90;99.90;;;;;;6202872;23;20178;-78
2022/03/14 08:42:34;;;;;;;22.57;16.57;;;10.90;99.90;;;;;;6205726;23;20189;-83
2022/03/14 08:45:01;;;;;;;25.03;18.27;;;11.00;99.90;;;;;;6205183;23;20178;-81
2022/03/14 08:47:28;;;;;;;21.47;17.03;;;11.00;99.90;;;;;;6206698;23;20182;-77
2022/03/14 08:49:55;;;;;;;24.33;17.93;;;11.00;99.90;;;;;;6203047;23;20202;-77
2022/03/14 08:52:21;;;;;;;23.10;16.83;;;11.10;99.90;;;;;;6204458;23;20190;-77
2022/03/14 08:54:50;;;;;;;22.87;17.27;;;11.10;99.90;;;;;;6205848;23;20193;-83
2022/03/14 08:57:17;;;;;;;24.47;17.50;;;11.10;99.90;;;;;;6208258;23;20580;-77
2022/03/14 08:59:44;;;;;;;28.07;18.20;;;11.10;99.90;;;;;;6211613;23;20186;-79
2022/03/14 09:02:11;;;;;;;22.50;18.10;;;11.10;99.90;;;;;;6210319;23;20186;-79
2022/03/14 09:04:38;;;;;;;21.73;16.80;;;11.20;99.90;;;;;;6212014;23;20213;-87
2022/03/14 09:07:06;;;;;;;24.50;17.67;;;11.20;99.90;;;;;;6209336;23;20189;-79
2022/03/14 09:09:34;;;;;;;23.50;17.87;;;11.20;99.90;;;;;;6206647;23;20466;-76
2022/03/14 09:12:02;;;;;;;23.23;17.43;;;11.20;99.90;;;;;;6209426;23;20181;-77
2022/03/14 09:14:30;;;;;;;25.07;17.80;;;11.30;99.90;;;;;;6206308;23;20535;-76
2022/03/14 09:16:58;;;;;;;21.60;16.37;;;11.30;99.90;;;;;;6206313;23;20198;-74
2022/03/14 09:19:25;;;;;;;24.10;16.53;;;11.40;99.90;;;;;;6206340;23;20224;-74
2022/03/14 09:21:58;;;;;;;20.23;16.03;;;11.50;99.90;;;;;;6207261;23;20174;-77
2022/03/14 09:24:25;;;;;;;24.80;16.67;;;11.50;99.90;;;;;;6205379;23;20269;-78
2022/03/14 09:26:52;;;;;;;19.20;14.77;;;11.50;99.90;;;;;;6206873;23;20276;-78
2022/03/14 09:29:20;;;;;;;21.30;15.17;;;11.60;99.90;;;;;;6205680;23;20251;-76
2022/03/14 09:31:49;;;;;;;17.27;13.93;;;11.70;99.90;;;;;;6204796;23;20178;-76
2022/03/14 09:34:15;;;;;;;16.53;13.77;;;11.70;99.90;;;;;;6206106;23;20210;-76
2022/03/14 09:36:42;;;;;;;20.67;14.63;;;11.80;99.90;;;;;;6205620;23;20194;-77
2022/03/14 09:39:13;;;;;;;18.23;14.33;;;11.80;99.90;;;;;;6204990;23;20170;-77
2022/03/14 09:41:42;;;;;;;19.23;14.07;;;11.90;99.90;;;;;;6206628;23;20173;-78
2022/03/14 09:44:10;;;;;;;16.80;12.17;;;12.00;99.90;;;;;;6206567;23;20185;-79
2022/03/14 09:46:39;;;;;;;19.77;13.97;;;12.00;99.90;;;;;;6205232;23;20173;-79
2022/03/14 09:49:09;;;;;;;18.37;12.93;;;12.00;99.90;;;;;;6205608;23;20287;-78
2022/03/14 09:51:38;;;;;;;17.90;12.40;;;12.10;99.90;;;;;;6205201;23;20485;-78
2022/03/14 09:54:06;;;;;;;16.30;12.87;;;12.20;99.90;;;;;;6205458;23;20567;-80
2022/03/14 09:56:33;;;;;;;23.63;14.60;;;12.30;99.90;;;;;;6205085;23;20205;-81
2022/03/14 09:59:00;;;;;;;19.97;12.63;;;12.40;99.90;;;;;;6205652;23;20174;-79
2022/03/14 10:01:28;;;;;;;18.33;13.40;;;12.50;99.90;;;;;;6205941;23;20174;-79
2022/03/14 10:03:57;;;;;;;20.27;12.40;;;12.60;99.90;;;;;;6207313;23;20202;-81
2022/03/14 10:06:24;;;;;;;18.67;12.77;;;12.70;99.90;;;;;;6206899;23;20181;-78
2022/03/14 10:08:51;;;;;;;17.67;11.50;;;12.90;99.90;;;;;;6206462;23;20170;-79
2022/03/14 10:11:18;;;;;;;14.43;10.40;;;12.90;99.90;;;;;;6206593;23;20245;-79
2022/03/14 10:13:45;;;;;;;21.73;11.43;;;13.10;99.90;;;;;;6206011;23;20194;-79
2022/03/14 10:16:12;;;;;;;16.87;11.30;;;13.20;99.90;;;;;;6206159;23;20209;-81
2022/03/14 10:18:55;;;;;;;15.40;10.93;;;13.30;99.90;;;;;;6205445;23;20176;-81
2022/03/14 10:21:34;;;;;;;16.97;11.30;;;13.40;99.90;;;;;;6205238;23;20228;-79
2022/03/14 10:24:03;;;;;;;18.30;11.90;;;13.60;99.90;;;;;;6206839;23;20473;-88
2022/03/14 10:26:33;;;;;;;14.33;10.67;;;13.80;99.90;;;;;;6206298;23;20456;-76
2022/03/14 10:29:00;;;;;;;18.53;9.57;;;14.00;99.90;;;;;;6205766;23;20190;-80
2022/03/14 10:31:29;;;;;;;14.60;8.17;;;14.10;99.90;;;;;;6206407;23;20170;-79
2022/03/14 10:34:03;;;;;;;16.47;8.60;;;14.20;99.90;;;;;;6205593;23;20554;-79
2022/03/14 10:36:45;;;;;;;21.80;8.80;;;14.30;99.90;;;;;;6205659;23;20193;-77
2022/03/14 10:39:16;;;;;;;15.20;8.17;;;14.40;99.90;;;;;;6205202;23;20170;-80
2022/03/14 10:41:46;;;;;;;12.63;7.83;;;14.60;99.90;;;;;;6204718;23;20166;-77
2022/03/14 10:44:23;;;;;;;14.30;7.47;;;14.70;99.90;;;;;;6206203;23;20178;-82
2022/03/14 10:46:50;;;;;;;14.13;7.30;;;14.80;99.90;;;;;;6206114;23;20232;-76
2022/03/14 10:49:18;;;;;;;13.77;8.53;;;14.90;99.90;;;;;;6203568;23;20209;-76
2022/03/14 10:51:56;;;;;;;20.07;8.10;;;14.90;99.90;;;;;;6205556;23;20177;-77
2022/03/14 10:54:23;;;;;;;13.93;7.33;;;15.00;99.90;;;;;;6205633;23;20178;-76
2022/03/14 10:57:07;;;;;;;13.73;7.60;;;15.10;99.90;;;;;;6205525;23;20692;-76
2022/03/14 10:59:39;;;;;;;15.50;7.10;;;15.10;99.90;;;;;;6205141;23;20227;-78
2022/03/14 11:02:07;;;;;;;12.27;6.67;;;15.30;99.90;;;;;;6204888;23;20170;-78
2022/03/14 11:04:42;;;;;;;11.63;6.77;;;15.40;99.90;;;;;;6204553;23;20166;-77
2022/03/14 11:07:11;;;;;;;13.50;6.80;;;15.50;99.90;;;;;;6205181;23;20201;-78
2022/03/14 11:09:42;;;;;;;13.07;6.17;;;15.60;99.90;;;;;;6203599;23;20559;-77
2022/03/14 11:12:11;;;;;;;13.65;6.82;;;15.70;99.90;;;;;;6205064;23;20170;-77
2022/03/14 11:14:39;;;;;;;16.25;6.90;;;15.80;99.90;;;;;;6205388;23;20167;-76
2022/03/14 11:17:18;;;;;;;15.90;8.27;;;15.70;99.90;;;;;;6204474;23;20244;-77
2022/03/14 11:19:45;;;;;;;14.60;8.30;;;15.60;99.90;;;;;;6204806;23;20486;-76
2022/03/14 11:22:14;;;;;;;15.02;7.57;;;15.50;99.90;;;;;;6203620;23;20181;-78
2022/03/14 11:24:44;;;;;;;14.47;7.40;;;15.50;99.90;;;;;;6205140;23;20185;-77
2022/03/14 11:27:22;;;;;;;13.82;7.82;;;15.30;99.90;;;;;;6204804;23;20174;-79
2022/03/14 11:29:51;;;;;;;13.57;7.50;;;15.20;99.90;;;;;;6205403;23;20166;-78
2022/03/14 11:32:19;;;;;;;15.97;8.10;;;14.90;99.90;;;;;;6204489;23;20174;-77
2022/03/14 11:34:47;;;;;;;16.73;10.03;;;14.80;99.90;;;;;;6206438;23;20170;-77
2022/03/14 11:37:17;;;;;;;18.83;9.43;;;14.70;99.90;;;;;;6206177;23;20198;-78
2022/03/14 11:39:44;;;;;;;19.33;9.50;;;14.50;99.90;;;;;;6205768;23;20177;-79
2022/03/14 11:42:12;;;;;;;19.53;11.00;;;14.50;99.90;;;;;;6206781;23;20447;-81
2022/03/14 11:44:40;;;;;;;21.17;11.63;;;14.50;99.90;;;;;;6206487;23;20232;-79
2022/03/14 11:47:10;;;;;;;25.73;11.97;;;14.50;99.90;;;;;;6206889;23;20170;-82
2022/03/14 11:49:37;;;;;;;17.13;10.07;;;14.40;99.90;;;;;;6206964;23;20208;-77
2022/03/14 11:52:10;;;;;;;18.47;10.93;;;14.40;99.90;;;;;;6207183;23;20178;-82
2022/03/14 11:54:40;;;;;;;13.60;9.07;;;14.40;99.90;;;;;;6206448;23;20185;-84
2022/03/14 11:57:08;;;;;;;17.77;10.00;;;14.30;99.90;;;;;;6204780;23;20190;-78
2022/03/14 11:59:36;;;;;;;21.70;11.77;;;14.30;99.90;;;;;;6204297;23;20174;-76
2022/03/14 12:02:06;;;;;;;22.47;12.60;;;14.50;99.90;;;;;;6203819;23;20217;-77
2022/03/14 12:04:35;;;;;;;22.03;10.80;;;14.50;99.90;;;;;;6204372;23;20174;-76
2022/03/14 12:07:16;;;;;;;21.23;9.47;;;14.40;99.90;;;;;;6203672;23;20185;-77
2022/03/14 12:09:48;;;;;;;18.83;10.83;;;14.50;99.90;;;;;;6204478;23;20606;-76
2022/03/14 12:12:33;;;;;;;22.53;9.80;;;14.60;99.90;;;;;;6204950;23;20426;-77
2022/03/14 12:15:01;;;;;;;21.13;9.87;;;14.70;99.90;;;;;;6205247;23;20174;-78
2022/03/14 12:17:30;;;;;;;17.50;9.93;;;14.80;99.90;;;;;;6204917;23;20201;-77
2022/03/14 12:19:59;;;;;;;18.90;10.33;;;14.90;99.90;;;;;;6203727;23;20177;-77
2022/03/14 12:22:46;;;;;;;14.90;8.23;;;14.80;99.90;;;;;;6203731;23;20180;-77
2022/03/14 12:25:43;;;;;;;26.07;8.97;;;14.80;99.90;;;;;;6205240;23;20181;-76
2022/03/14 12:28:34;;;;;;;18.00;7.83;;;14.70;99.90;;;;;;6206223;23;20170;-76
2022/03/14 12:31:14;;;;;;;19.00;8.50;;;14.70;99.90;;;;;;6176989;23;20178;-77
2022/03/14 12:33:43;;;;;;;18.10;8.13;;;14.80;99.90;;;;;;6206071;23;20252;-75
2022/03/14 12:36:35;;;;;;;15.30;7.83;;;14.90;99.90;;;;;;6207304;23;20182;-78
2022/03/14 12:39:26;;;;;;;25.77;8.57;;;14.90;99.90;;;;;;6207354;23;20178;-78
2022/03/14 12:41:54;;;;;;;13.83;7.93;;;15.10;99.90;;;;;;6199070;23;20853;-78
2022/03/14 12:44:23;;;;;;;15.73;7.83;;;15.10;99.90;;;;;;6206092;23;20178;-77